Time;durP1;ratioP1;P1;durP2;ratioP2;P2;SDS_P1;SDS_P2;PMS_P1;PMS_P2;Temp;Humidity;BMP_temperature;BMP_pressure;BME280_temperature;BME280_humidity;BME280_pressure;Samples;Min_cycle;Max_cycle;Signal;HPM_P1;HPM_P2
2023/05/08 00:01:07;;;;;;;11.85;10.40;;;9.00;23.90;;;;;;5053136;28;20379;-56
2023/05/08 00:03:32;;;;;;;13.32;9.43;;;9.00;25.30;;;;;;5052913;28;20032;-55
2023/05/08 00:05:58;;;;;;;11.30;10.18;;;9.00;24.20;;;;;;5053068;28;20032;-56
2023/05/08 00:08:24;;;;;;;11.20;10.00;;;8.80;32.10;;;;;;5067512;28;20043;-56
2023/05/08 00:10:49;;;;;;;13.75;10.38;;;8.70;32.70;;;;;;5072996;28;20578;-56
2023/05/08 00:13:15;;;;;;;11.48;10.27;;;8.70;32.60;;;;;;5072909;28;20029;-53
2023/05/08 00:15:41;;;;;;;11.55;10.35;;;8.70;31.70;;;;;;5072661;28;20029;-56
2023/05/08 00:18:07;;;;;;;14.30;11.93;;;8.60;27.70;;;;;;5072835;28;20093;-53
2023/05/08 00:20:33;;;;;;;13.65;10.80;;;8.60;28.70;;;;;;5072901;28;20452;-57
2023/05/08 00:22:59;;;;;;;12.98;11.13;;;8.50;34.70;;;;;;5071370;28;20478;-53
2023/05/08 00:25:25;;;;;;;14.93;11.48;;;8.50;30.70;;;;;;5072512;28;20025;-57
2023/05/08 00:27:52;;;;;;;15.15;11.88;;;8.40;24.80;;;;;;5072629;28;20025;-55
2023/05/08 00:30:19;;;;;;;17.33;13.23;;;8.30;31.70;;;;;;5072562;28;20074;-57
2023/05/08 00:32:45;;;;;;;15.95;12.43;;;8.30;29.00;;;;;;5072330;28;20108;-54
2023/05/08 00:35:11;;;;;;;17.75;12.63;;;8.30;28.10;;;;;;5071269;28;20052;-55
2023/05/08 00:37:39;;;;;;;17.38;12.68;;;8.20;29.00;;;;;;5072189;28;20062;-52
2023/05/08 00:40:09;;;;;;;16.10;13.27;;;8.20;34.90;;;;;;5072098;28;20016;-57
2023/05/08 00:42:35;;;;;;;18.40;14.02;;;8.20;31.40;;;;;;5070835;28;20075;-53
2023/05/08 00:48:24;;;;;;;20.60;15.90;;;8.00;35.80;;;;;;5071974;28;20032;-56
2023/05/08 00:50:51;;;;;;;18.65;15.23;;;8.00;32.70;;;;;;5072139;28;20028;-55
2023/05/08 00:53:18;;;;;;;17.48;14.90;;;7.90;40.40;;;;;;5072182;28;20085;-54
2023/05/08 00:55:45;;;;;;;19.85;15.48;;;7.90;33.30;;;;;;5072036;28;20029;-56
2023/05/08 00:58:12;;;;;;;21.08;15.45;;;7.90;41.30;;;;;;5072104;28;20109;-57
2023/05/08 01:00:40;;;;;;;20.65;16.75;;;7.80;34.40;;;;;;5071950;28;20017;-56
2023/05/08 01:03:08;;;;;;;22.60;16.08;;;7.70;34.10;;;;;;5071928;28;20325;-58
2023/05/08 01:05:34;;;;;;;22.08;16.30;;;7.80;37.40;;;;;;5070293;28;20131;-55
2023/05/08 01:08:00;;;;;;;20.67;16.55;;;7.70;36.70;;;;;;5072104;28;20033;-56
2023/05/08 01:10:51;;;;;;;23.75;16.50;;;7.70;39.90;;;;;;5071717;28;20047;-55
2023/05/08 01:13:23;;;;;;;22.75;18.00;;;7.70;48.60;;;;;;5050260;28;20043;-55
2023/05/08 01:16:14;;;;;;;22.42;17.67;;;7.70;39.50;;;;;;5071774;28;20021;-54
2023/05/08 01:19:25;;;;;;;20.25;16.33;;;7.70;46.60;;;;;;5071553;28;20031;-54
2023/05/08 01:22:03;;;;;;;24.20;18.00;;;7.70;38.80;;;;;;5071979;28;20036;-56
2023/05/08 01:25:00;;;;;;;23.33;17.15;;;7.70;41.50;;;;;;5071567;28;20060;-55
2023/05/08 01:27:44;;;;;;;24.45;18.08;;;7.70;43.40;;;;;;5071603;28;20024;-56
2023/05/08 01:30:31;;;;;;;22.95;17.90;;;7.70;41.20;;;;;;5071804;28;20345;-56
2023/05/08 01:33:06;;;;;;;24.52;18.92;;;7.60;47.00;;;;;;5072202;28;20025;-55
2023/05/08 01:36:07;;;;;;;24.42;18.65;;;7.70;40.10;;;;;;5071359;28;20452;-54
2023/05/08 01:38:41;;;;;;;23.25;17.45;;;7.70;42.40;;;;;;5071537;28;20054;-53
2023/05/08 01:41:15;;;;;;;28.55;18.60;;;7.60;36.80;;;;;;5071531;28;20518;-53
2023/05/08 01:43:52;;;;;;;26.88;18.55;;;7.60;41.30;;;;;;5070400;28;20506;-55
2023/05/08 01:46:22;;;;;;;25.45;20.13;;;7.70;40.80;;;;;;5071544;28;20021;-56
2023/05/08 01:49:10;;;;;;;26.67;19.92;;;7.70;41.60;;;;;;5071259;28;20025;-54
2023/05/08 01:51:49;;;;;;;23.45;18.75;;;7.70;37.20;;;;;;5072250;28;20394;-57
2023/05/08 01:54:22;;;;;;;26.02;20.85;;;7.70;33.80;;;;;;5075541;28;20048;-55
2023/05/08 01:56:49;;;;;;;;;;;7.70;33.70;;;;;;5075948;28;20127;-57
2023/05/08 01:59:19;;;;;;;25.40;19.98;;;7.70;30.10;;;;;;5075467;28;19951;-56
2023/05/08 02:01:46;;;;;;;25.60;19.23;;;7.60;32.90;;;;;;5075308;28;20025;-57
2023/05/08 02:04:15;;;;;;;27.77;20.20;;;7.60;33.90;;;;;;5075290;28;20041;-54
2023/05/08 02:06:41;;;;;;;29.60;19.58;;;7.60;30.80;;;;;;5075265;28;20063;-56
2023/05/08 02:09:09;;;;;;;25.48;21.02;;;7.70;37.60;;;;;;5075341;28;20082;-53
2023/05/08 02:11:37;;;;;;;23.45;19.00;;;7.70;28.00;;;;;;5075139;28;20025;-54
2023/05/08 02:14:05;;;;;;;24.50;19.70;;;7.70;32.10;;;;;;5075358;28;20023;-58
2023/05/08 02:16:37;;;;;;;29.40;21.90;;;7.70;21.50;;;;;;5074946;28;20021;-54
2023/05/08 02:19:06;;;;;;;27.77;20.83;;;7.70;27.20;;;;;;5075150;28;20028;-56
2023/05/08 02:21:34;;;;;;;30.42;22.30;;;7.60;24.20;;;;;;5074987;28;20032;-57
2023/05/08 02:24:01;;;;;;;26.75;21.13;;;7.60;31.10;;;;;;5073607;28;20103;-57
2023/05/08 02:26:27;;;;;;;25.67;19.30;;;7.70;27.20;;;;;;5074827;28;20020;-52
2023/05/08 02:28:55;;;;;;;28.02;21.95;;;7.70;29.80;;;;;;5075074;28;20177;-55
2023/05/08 02:31:21;;;;;;;27.80;21.17;;;7.70;33.70;;;;;;5074658;28;20024;-54
2023/05/08 02:33:48;;;;;;;25.75;20.50;;;7.70;31.50;;;;;;5074658;28;20024;-56
2023/05/08 02:36:17;;;;;;;24.08;19.02;;;7.60;30.20;;;;;;5073506;28;20017;-53
2023/05/08 02:38:47;;;;;;;26.52;20.63;;;7.60;29.30;;;;;;5074597;28;20039;-52
2023/05/08 02:41:14;;;;;;;26.67;19.85;;;7.70;26.90;;;;;;5074724;28;20364;-55
2023/05/08 02:43:40;;;;;;;25.55;21.27;;;7.70;34.30;;;;;;5074365;28;20535;-55
2023/05/08 02:46:11;;;;;;;25.40;20.58;;;7.70;29.80;;;;;;5074603;28;20021;-54
2023/05/08 02:48:56;;;;;;;27.60;20.45;;;7.70;24.10;;;;;;5074383;28;20067;-51
2023/05/08 02:51:32;;;;;;;28.70;19.95;;;7.70;28.90;;;;;;5074321;28;20480;-53
2023/05/08 02:54:08;;;;;;;28.10;20.58;;;7.60;30.70;;;;;;5074397;28;20044;-53
2023/05/08 02:56:57;;;;;;;24.77;18.67;;;7.70;40.50;;;;;;5074442;28;20032;-55
2023/05/08 02:59:30;;;;;;;25.85;18.88;;;7.70;28.60;;;;;;5074180;28;20031;-55
2023/05/08 03:02:05;;;;;;;25.98;19.83;;;7.60;32.80;;;;;;5074094;28;20103;-56
2023/05/08 03:04:50;;;;;;;24.92;18.75;;;7.60;35.40;;;;;;5074039;28;20123;-55
2023/05/08 03:07:17;;;;;;;24.60;18.60;;;7.60;32.30;;;;;;5073324;28;20492;-57
2023/05/08 03:09:49;;;;;;;22.85;18.85;;;7.70;27.70;;;;;;5072805;28;20040;-51
2023/05/08 03:12:19;;;;;;;24.95;19.63;;;7.70;29.30;;;;;;5071838;28;20029;-53
2023/05/08 03:15:03;;;;;;;25.73;19.85;;;7.70;28.10;;;;;;5071448;28;20033;-50
2023/05/08 03:17:32;;;;;;;23.48;18.42;;;7.70;33.30;;;;;;5071714;28;20426;-54
2023/05/08 03:20:02;;;;;;;24.33;18.98;;;7.70;31.60;;;;;;5073950;28;20561;-50
2023/05/08 03:22:29;;;;;;;23.23;18.33;;;7.70;40.90;;;;;;5072830;28;20016;-55
2023/05/08 03:24:58;;;;;;;23.95;19.33;;;7.70;35.70;;;;;;5072979;28;20111;-50
2023/05/08 03:27:27;;;;;;;26.23;19.77;;;7.70;33.10;;;;;;5072732;28;20013;-56
2023/05/08 03:29:54;;;;;;;26.55;19.25;;;7.80;33.60;;;;;;5072162;28;20020;-54
2023/05/08 03:32:22;;;;;;;27.08;19.98;;;7.80;29.20;;;;;;5073822;28;20371;-54
2023/05/08 03:34:48;;;;;;;23.63;18.10;;;7.70;27.70;;;;;;5073672;28;20017;-55
2023/05/08 03:37:14;;;;;;;28.65;22.73;;;7.80;34.30;;;;;;5073638;28;20031;-52
2023/05/08 03:39:40;;;;;;;26.00;19.02;;;7.80;36.30;;;;;;5073262;28;20028;-55
2023/05/08 03:42:06;;;;;;;30.63;19.77;;;7.80;36.90;;;;;;5073458;28;20027;-55
2023/05/08 03:44:32;;;;;;;28.83;20.75;;;7.80;38.40;;;;;;5073447;28;20051;-55
2023/05/08 03:46:59;;;;;;;22.98;18.77;;;7.80;35.20;;;;;;5072074;28;20104;-56
2023/05/08 03:49:25;;;;;;;25.27;19.55;;;7.80;37.60;;;;;;5073224;28;20158;-56
2023/05/08 03:51:54;;;;;;;24.90;19.90;;;7.90;41.00;;;;;;5073502;28;20024;-57
2023/05/08 03:54:24;;;;;;;31.55;20.75;;;7.90;35.00;;;;;;5073361;28;20521;-52
2023/05/08 03:56:50;;;;;;;26.63;20.55;;;7.90;35.80;;;;;;5073475;28;20023;-53
2023/05/08 03:59:28;;;;;;;30.20;21.00;;;7.80;36.50;;;;;;5073020;28;20032;-50
2023/05/08 04:02:00;;;;;;;26.55;20.20;;;7.90;35.40;;;;;;5073300;28;20029;-56
2023/05/08 04:04:40;;;;;;;24.58;19.90;;;7.90;38.50;;;;;;5072790;28;20036;-53
2023/05/08 04:07:22;;;;;;;24.80;19.52;;;7.90;33.80;;;;;;5073037;28;20103;-53
2023/05/08 04:09:59;;;;;;;25.00;19.77;;;7.90;35.80;;;;;;5072989;28;20017;-56
2023/05/08 04:13:08;;;;;;;27.35;21.00;;;8.00;31.20;;;;;;5072646;28;20035;-56
2023/05/08 04:15:42;;;;;;;28.83;19.85;;;7.90;31.40;;;;;;5063459;28;20384;-57
2023/05/08 04:18:13;;;;;;;26.15;20.42;;;8.00;38.00;;;;;;5072804;28;20029;-56
2023/05/08 04:20:41;;;;;;;28.33;20.35;;;8.10;28.40;;;;;;5072633;28;20055;-52
2023/05/08 04:23:08;;;;;;;29.58;20.60;;;8.10;35.20;;;;;;5072805;28;20047;-55
2023/05/08 04:25:41;;;;;;;27.08;20.50;;;8.10;31.40;;;;;;5072461;28;20032;-57
2023/05/08 04:28:07;;;;;;;25.40;19.52;;;8.10;30.60;;;;;;5072509;28;20032;-56
2023/05/08 04:30:33;;;;;;;32.28;19.92;;;8.20;26.40;;;;;;5071076;28;20033;-57
2023/05/08 04:33:02;;;;;;;25.83;19.75;;;8.10;25.50;;;;;;5072623;28;20025;-56
2023/05/08 04:35:28;;;;;;;26.25;19.55;;;8.10;25.60;;;;;;5072802;28;20044;-56
2023/05/08 04:37:54;;;;;;;24.90;19.85;;;8.10;20.60;;;;;;5072513;28;20025;-59
2023/05/08 04:40:20;;;;;;;29.42;19.85;;;8.10;26.00;;;;;;5069808;28;20499;-57
2023/05/08 04:42:46;;;;;;;29.45;19.88;;;8.00;29.70;;;;;;5071115;28;20092;-53
2023/05/08 04:45:12;;;;;;;31.23;21.77;;;8.00;32.90;;;;;;5070033;28;20024;-57
2023/05/08 04:47:38;;;;;;;26.23;19.92;;;8.00;32.70;;;;;;5071290;28;20028;-57
2023/05/08 04:50:04;;;;;;;31.35;21.20;;;8.10;38.10;;;;;;5071670;28;20020;-59
2023/05/08 04:52:30;;;;;;;27.35;20.73;;;8.00;27.20;;;;;;5070271;28;20093;-54
2023/05/08 04:54:55;;;;;;;29.08;20.10;;;8.00;31.20;;;;;;5071727;28;20135;-54
2023/05/08 04:57:21;;;;;;;29.40;20.70;;;8.10;41.20;;;;;;5071987;28;20024;-59
2023/05/08 04:59:47;;;;;;;31.58;21.23;;;8.20;31.30;;;;;;5069536;28;20403;-54
2023/05/08 05:02:12;;;;;;;27.85;21.45;;;8.10;33.70;;;;;;5077599;28;20025;-58
2023/05/08 05:04:38;;;;;;;27.55;21.27;;;8.10;37.10;;;;;;5069954;28;20048;-54
2023/05/08 05:07:04;;;;;;;26.88;20.73;;;8.10;39.70;;;;;;5072026;28;20241;-59
2023/05/08 05:09:30;;;;;;;29.05;21.40;;;8.20;41.70;;;;;;5072644;28;20086;-54
2023/05/08 05:11:55;;;;;;;28.92;21.73;;;8.20;41.10;;;;;;5091808;28;20479;-57
2023/05/08 05:14:21;;;;;;;31.75;21.95;;;8.30;31.40;;;;;;5085064;28;20056;-58
2023/05/08 05:16:47;;;;;;;36.50;22.00;;;8.20;33.20;;;;;;5070705;28;20424;-58
2023/05/08 05:19:13;;;;;;;29.52;21.65;;;8.20;39.10;;;;;;5070822;28;20683;-55
2023/05/08 05:21:38;;;;;;;29.45;22.67;;;8.20;39.10;;;;;;5070863;28;20028;-56
2023/05/08 05:24:05;;;;;;;30.73;22.77;;;8.20;35.10;;;;;;5070887;28;20104;-55
2023/05/08 05:26:31;;;;;;;28.08;21.55;;;8.20;34.70;;;;;;5070984;28;20364;-57
2023/05/08 05:28:57;;;;;;;32.60;20.92;;;8.20;41.90;;;;;;5073030;28;20111;-59
2023/05/08 05:31:22;;;;;;;32.83;23.70;;;8.20;44.80;;;;;;5071662;28;20027;-59
2023/05/08 05:33:48;;;;;;;32.40;21.75;;;8.10;44.70;;;;;;5071410;28;20476;-58
2023/05/08 05:36:14;;;;;;;27.90;22.05;;;8.10;46.30;;;;;;5070983;28;20111;-60
2023/05/08 05:38:40;;;;;;;30.08;22.70;;;8.20;43.60;;;;;;5071229;28;20456;-56
2023/05/08 05:41:05;;;;;;;30.50;22.20;;;8.20;44.40;;;;;;5071440;28;20028;-56
2023/05/08 05:43:32;;;;;;;30.48;21.75;;;8.20;41.50;;;;;;5071275;28;20032;-55
2023/05/08 05:46:05;;;;;;;28.15;22.40;;;8.20;47.10;;;;;;5071296;28;20044;-55
2023/05/08 05:48:31;;;;;;;34.78;22.45;;;8.30;48.20;;;;;;5071320;28;20031;-57
2023/05/08 05:50:57;;;;;;;30.83;20.58;;;8.40;39.40;;;;;;5071110;28;20028;-55
2023/05/08 05:53:22;;;;;;;29.67;21.45;;;8.40;35.90;;;;;;5070955;28;20497;-56
2023/05/08 05:55:48;;;;;;;30.98;23.95;;;8.40;29.70;;;;;;5071043;28;20024;-57
2023/05/08 05:58:15;;;;;;;28.60;21.33;;;8.40;43.90;;;;;;5071150;28;20119;-56
2023/05/08 06:00:41;;;;;;;26.80;20.38;;;8.50;43.50;;;;;;5071093;28;20021;-58
2023/05/08 06:03:07;;;;;;;30.52;21.52;;;8.50;40.60;;;;;;5071298;28;20360;-58
2023/05/08 06:05:39;;;;;;;27.92;20.80;;;8.60;33.00;;;;;;5070770;28;20040;-59
2023/05/08 06:08:06;;;;;;;27.13;20.17;;;8.50;23.90;;;;;;5071081;28;20055;-59
2023/05/08 06:10:31;;;;;;;26.90;21.25;;;8.50;33.40;;;;;;5069979;28;20036;-60
2023/05/08 06:12:57;;;;;;;33.35;21.48;;;8.50;37.30;;;;;;5070787;28;20041;-60
2023/05/08 06:15:23;;;;;;;28.55;21.35;;;8.60;27.40;;;;;;5069773;28;20054;-60
2023/05/08 06:17:49;;;;;;;30.50;21.35;;;8.60;33.20;;;;;;5069382;28;20055;-60
2023/05/08 06:20:14;;;;;;;26.15;19.88;;;8.70;29.10;;;;;;5070209;28;20102;-59
2023/05/08 06:22:40;;;;;;;26.50;21.15;;;8.60;30.20;;;;;;5070596;28;20017;-60
2023/05/08 06:25:07;;;;;;;27.85;19.55;;;8.70;31.20;;;;;;5070491;28;20021;-60
2023/05/08 06:27:36;;;;;;;30.38;20.50;;;8.90;24.50;;;;;;5068496;28;20029;-60
2023/05/08 06:30:03;;;;;;;23.52;19.83;;;8.80;14.80;;;;;;5070545;28;20020;-60
2023/05/08 06:32:29;;;;;;;28.95;20.05;;;8.80;12.50;;;;;;5069204;28;20044;-60
2023/05/08 06:34:55;;;;;;;24.77;18.52;;;8.90;18.70;;;;;;5070521;28;20064;-60
2023/05/08 06:37:21;;;;;;;25.95;19.88;;;9.00;14.70;;;;;;5071473;28;20032;-60
2023/05/08 06:39:47;;;;;;;26.40;20.05;;;9.10;16.10;;;;;;5072887;28;20047;-60
2023/05/08 06:42:13;;;;;;;26.35;19.58;;;9.20;9.20;;;;;;5074386;28;20478;-59
2023/05/08 06:44:39;;;;;;;29.02;21.60;;;8.90;3.10;;;;;;5074174;28;20364;-60
2023/05/08 06:47:05;;;;;;;29.80;21.52;;;8.80;4.60;;;;;;5073013;28;20044;-59
2023/05/08 06:49:31;;;;;;;31.95;21.83;;;8.90;17.50;;;;;;5072765;28;20033;-59
2023/05/08 06:51:57;;;;;;;30.05;21.40;;;8.90;8.30;;;;;;5072748;28;20082;-57
2023/05/08 06:54:23;;;;;;;26.83;21.23;;;9.10;8.10;;;;;;5073184;28;20028;-57
2023/05/08 06:56:48;;;;;;;29.95;21.50;;;9.10;1.00;;;;;;5073606;28;20054;-57
2023/05/08 06:59:14;;;;;;;30.08;22.45;;;9.00;5.00;;;;;;5073752;28;20067;-57
2023/05/08 07:01:40;;;;;;;28.20;21.80;;;9.10;1.00;;;;;;5073279;28;20024;-57
2023/05/08 07:04:06;;;;;;;27.33;21.30;;;9.20;1.10;;;;;;5072222;28;20064;-56
2023/05/08 07:06:32;;;;;;;29.77;21.27;;;9.30;1.00;;;;;;5073995;28;20024;-58
2023/05/08 07:08:57;;;;;;;24.73;19.83;;;9.30;1.00;;;;;;5073838;28;20024;-53
2023/05/08 07:11:23;;;;;;;25.48;20.40;;;9.50;1.00;;;;;;5072351;28;20564;-55
2023/05/08 07:13:49;;;;;;;27.15;20.10;;;9.60;1.00;;;;;;5073537;28;20017;-56
2023/05/08 07:16:15;;;;;;;24.63;19.75;;;9.50;1.00;;;;;;5073714;28;20032;-54
2023/05/08 07:18:43;;;;;;;24.58;18.83;;;9.40;1.00;;;;;;5073297;28;20079;-56
2023/05/08 07:21:09;;;;;;;24.45;18.90;;;9.30;1.00;;;;;;5073908;28;20090;-55
2023/05/08 07:23:35;;;;;;;24.35;18.08;;;9.20;1.00;;;;;;5073794;28;20024;-54
2023/05/08 07:26:01;;;;;;;24.63;20.05;;;9.20;1.00;;;;;;5073876;28;20650;-56
2023/05/08 07:28:26;;;;;;;24.65;19.42;;;9.20;1.00;;;;;;5073699;28;20510;-55
2023/05/08 07:30:52;;;;;;;27.63;20.95;;;9.20;1.00;;;;;;5073793;28;20028;-56
2023/05/08 07:33:18;;;;;;;26.30;19.35;;;9.30;1.00;;;;;;5073499;28;20034;-57
2023/05/08 07:35:44;;;;;;;21.65;17.10;;;9.30;1.00;;;;;;5073370;28;20108;-53
2023/05/08 07:38:10;;;;;;;20.33;15.55;;;9.40;1.00;;;;;;5073052;28;20391;-55
2023/05/08 07:40:35;;;;;;;19.80;15.02;;;9.60;1.00;;;;;;5073227;28;20028;-51
2023/05/08 07:43:01;;;;;;;19.92;16.65;;;9.40;1.00;;;;;;5073375;28;20039;-54
2023/05/08 07:45:27;;;;;;;24.77;19.50;;;9.40;1.00;;;;;;5073193;28;20024;-55
2023/05/08 07:47:57;;;;;;;23.75;18.40;;;9.40;1.00;;;;;;5073320;28;20406;-57
2023/05/08 07:50:24;;;;;;;27.20;18.65;;;9.40;1.00;;;;;;5071947;28;20028;-56
2023/05/08 07:52:50;;;;;;;23.58;18.13;;;9.50;1.00;;;;;;5071942;28;20031;-54
2023/05/08 07:55:17;;;;;;;24.38;18.13;;;9.50;1.00;;;;;;5073385;28;20025;-56
2023/05/08 07:57:43;;;;;;;26.63;19.20;;;9.60;1.00;;;;;;5072088;28;20020;-58
2023/05/08 08:00:14;;;;;;;25.00;20.13;;;9.80;1.00;;;;;;5072894;28;20028;-54
2023/05/08 08:02:41;;;;;;;25.95;17.75;;;9.90;1.00;;;;;;5072569;28;20017;-57
2023/05/08 08:05:07;;;;;;;23.70;19.23;;;10.00;1.00;;;;;;5071470;28;20044;-57
2023/05/08 08:07:33;;;;;;;24.10;18.80;;;9.90;1.00;;;;;;5072684;28;20013;-54
2023/05/08 08:09:59;;;;;;;25.02;19.20;;;10.00;1.00;;;;;;5071566;28;20024;-56
2023/05/08 08:12:25;;;;;;;24.83;19.13;;;9.80;1.00;;;;;;5072726;28;20052;-54
2023/05/08 08:14:51;;;;;;;22.17;18.55;;;9.80;1.00;;;;;;5071160;28;20036;-54
2023/05/08 08:17:17;;;;;;;28.75;19.60;;;9.90;1.00;;;;;;5072684;28;20031;-55
2023/05/08 08:19:43;;;;;;;22.48;17.88;;;9.70;1.00;;;;;;5071343;28;20031;-56
2023/05/08 08:22:08;;;;;;;23.95;19.02;;;10.00;1.00;;;;;;5072504;28;20074;-56
2023/05/08 08:24:34;;;;;;;29.52;20.10;;;10.10;1.00;;;;;;5071228;28;20070;-58
2023/05/08 08:27:00;;;;;;;25.60;17.88;;;10.20;1.00;;;;;;5072591;28;20108;-57
2023/05/08 08:29:26;;;;;;;97.55;60.17;;;10.50;1.00;;;;;;5072465;28;20031;-56
2023/05/08 08:31:51;;;;;;;57.80;43.67;;;10.40;1.00;;;;;;5072382;28;20082;-56
2023/05/08 08:34:17;;;;;;;28.83;19.92;;;10.50;1.00;;;;;;5071885;28;20020;-57
2023/05/08 08:36:43;;;;;;;23.05;19.50;;;10.50;1.00;;;;;;5072009;28;20052;-57
2023/05/08 08:39:09;;;;;;;22.65;18.45;;;10.50;1.00;;;;;;5071855;28;20074;-57
2023/05/08 08:41:35;;;;;;;27.30;18.05;;;10.70;1.00;;;;;;5071947;28;20021;-57
2023/05/08 08:44:00;;;;;;;30.45;20.42;;;10.60;1.00;;;;;;5071673;28;20024;-57
2023/05/08 08:46:27;;;;;;;26.15;20.15;;;10.60;1.00;;;;;;5072158;28;20162;-58
2023/05/08 08:48:55;;;;;;;22.33;19.10;;;10.80;1.00;;;;;;5071501;28;20499;-57
2023/05/08 08:51:31;;;;;;;23.92;19.08;;;11.00;1.00;;;;;;5071825;28;20456;-58
2023/05/08 08:54:11;;;;;;;22.33;17.08;;;10.90;1.00;;;;;;5071092;28;20024;-56
2023/05/08 08:56:39;;;;;;;23.77;18.60;;;10.90;1.00;;;;;;5071250;28;20024;-57
2023/05/08 08:59:07;;;;;;;24.38;18.60;;;11.00;1.00;;;;;;5071898;28;20115;-54
2023/05/08 09:01:37;;;;;;;24.20;17.77;;;11.00;1.00;;;;;;5070178;28;20667;-58
2023/05/08 09:04:04;;;;;;;23.02;17.80;;;11.20;1.00;;;;;;5069274;28;20131;-55
2023/05/08 09:06:30;;;;;;;23.48;17.75;;;11.50;1.00;;;;;;5086766;28;20099;-57
2023/05/08 09:08:56;;;;;;;21.77;17.50;;;11.50;99.90;;;;;;5071059;28;20051;-57
2023/05/08 09:11:23;;;;;;;22.55;17.50;;;11.50;99.90;;;;;;5082072;28;20024;-58
2023/05/08 09:13:49;;;;;;;21.52;17.67;;;11.70;99.90;;;;;;5075118;28;20020;-57
2023/05/08 09:16:15;;;;;;;26.23;16.90;;;11.60;99.90;;;;;;5091580;28;20051;-57
2023/05/08 09:18:40;;;;;;;19.33;16.02;;;11.60;99.90;;;;;;5091544;28;20020;-58
2023/05/08 09:21:06;;;;;;;19.38;16.17;;;11.70;99.90;;;;;;5077267;28;20020;-58
2023/05/08 09:23:34;;;;;;;23.80;17.08;;;11.70;99.90;;;;;;5071031;28;20533;-57
2023/05/08 09:26:00;;;;;;;27.27;17.35;;;11.60;99.90;;;;;;5071542;28;20044;-58
2023/05/08 09:28:26;;;;;;;21.98;17.17;;;11.60;99.90;;;;;;5068951;28;20048;-57
2023/05/08 09:30:57;;;;;;;21.50;17.45;;;11.70;99.90;;;;;;5070754;28;20033;-57
2023/05/08 09:33:25;;;;;;;25.73;19.92;;;11.80;99.90;;;;;;5070550;28;20116;-58
2023/05/08 09:35:50;;;;;;;29.83;18.15;;;12.00;99.90;;;;;;5070647;28;20052;-57
2023/05/08 09:38:34;;;;;;;21.98;16.55;;;12.30;1.00;;;;;;5069291;28;20078;-57
2023/05/08 09:41:14;;;;;;;20.02;16.60;;;12.50;1.00;;;;;;5071549;28;20027;-56
2023/05/08 09:43:41;;;;;;;19.38;16.25;;;12.70;99.90;;;;;;5070750;28;20024;-55
2023/05/08 09:46:21;;;;;;;25.90;18.42;;;12.70;1.00;;;;;;5071120;28;20016;-58
2023/05/08 09:48:47;;;;;;;21.25;16.77;;;12.80;99.90;;;;;;5071338;28;20028;-63
2023/05/08 09:51:12;;;;;;;21.15;17.33;;;12.60;99.90;;;;;;5071078;28;20098;-56
2023/05/08 09:53:38;;;;;;;22.90;18.52;;;12.50;99.90;;;;;;5070824;28;20048;-55
2023/05/08 09:56:05;;;;;;;22.00;18.15;;;12.60;99.90;;;;;;5070973;28;20107;-57
2023/05/08 09:58:43;;;;;;;27.42;17.73;;;12.40;99.90;;;;;;5070937;28;20056;-55
2023/05/08 10:01:30;;;;;;;20.48;18.08;;;12.50;1.00;;;;;;5070690;28;20391;-55
2023/05/08 10:03:56;;;;;;;20.20;15.93;;;12.90;1.00;;;;;;5070843;28;20048;-54
2023/05/08 10:06:22;;;;;;;18.92;16.52;;;13.00;1.00;;;;;;5071343;28;20337;-57
2023/05/08 10:08:48;;;;;;;20.48;16.65;;;13.00;1.00;;;;;;5071528;28;20035;-58
2023/05/08 10:11:20;;;;;;;23.75;16.73;;;12.90;1.00;;;;;;5070681;28;20017;-59
2023/05/08 10:13:46;;;;;;;23.27;16.35;;;13.30;1.00;;;;;;5074120;28;20021;-57
2023/05/08 10:16:16;;;;;;;23.92;15.95;;;13.50;99.90;;;;;;5075176;28;20544;-58
2023/05/08 10:18:49;;;;;;;18.42;15.27;;;13.80;99.90;;;;;;5074796;28;20029;-56
2023/05/08 10:21:16;;;;;;;20.95;16.02;;;14.10;99.90;;;;;;5074700;28;20487;-59
2023/05/08 10:23:45;;;;;;;19.60;16.23;;;13.90;99.90;;;;;;5074886;28;20033;-58
2023/05/08 10:26:15;;;;;;;24.15;15.95;;;13.60;99.90;;;;;;5048697;28;20048;-58
2023/05/08 10:28:55;;;;;;;18.08;16.17;;;13.70;99.90;;;;;;5049482;28;20063;-58
2023/05/08 10:31:24;;;;;;;24.40;16.27;;;13.90;1.00;;;;;;5058483;28;20427;-58
2023/05/08 10:33:58;;;;;;;17.58;15.05;;;14.20;1.00;;;;;;5044474;28;20052;-58
2023/05/08 10:36:24;;;;;;;21.63;16.02;;;14.20;99.90;;;;;;5045300;28;20422;-58
2023/05/08 10:38:50;;;;;;;18.77;14.88;;;14.40;1.00;;;;;;5044154;28;20036;-58
2023/05/08 10:41:17;;;;;;;19.33;14.90;;;14.40;1.00;;;;;;5045914;28;20067;-58
2023/05/08 10:43:44;;;;;;;22.33;14.23;;;14.70;99.90;;;;;;5045104;28;20024;-58
2023/05/08 10:46:37;;;;;;;20.52;16.42;;;15.00;1.00;;;;;;5046994;28;20057;-58
2023/05/08 10:49:10;;;;;;;19.50;14.75;;;14.80;1.00;;;;;;5035042;28;20668;-58
2023/05/08 10:51:51;;;;;;;16.70;14.90;;;14.80;99.90;;;;;;5044693;28;20079;-57
2023/05/08 10:54:41;;;;;;;18.20;15.07;;;14.90;1.00;;;;;;5044581;28;20037;-58
2023/05/08 10:57:11;;;;;;;21.05;15.68;;;14.80;1.00;;;;;;5047206;28;20017;-58
2023/05/08 10:59:37;;;;;;;19.25;15.13;;;15.20;99.90;;;;;;5043676;28;20018;-58
2023/05/08 11:02:06;;;;;;;22.73;15.60;;;15.80;99.90;;;;;;5043789;28;20055;-58
2023/05/08 11:04:33;;;;;;;25.23;16.40;;;15.80;99.90;;;;;;5043761;28;20045;-58
2023/05/08 11:06:59;;;;;;;17.77;15.90;;;15.60;19.20;;;;;;5042390;28;20032;-56
2023/05/08 11:09:44;;;;;;;21.83;16.35;;;15.50;99.90;;;;;;5048149;28;20032;-58
2023/05/08 11:12:25;;;;;;;21.38;16.75;;;15.50;99.90;;;;;;5087170;28;20024;-59
2023/05/08 11:15:08;;;;;;;19.65;16.00;;;15.90;86.60;;;;;;5092989;28;20031;-58
2023/05/08 11:17:34;;;;;;;21.63;15.63;;;16.40;1.00;;;;;;5093106;28;20024;-57
2023/05/08 11:20:05;;;;;;;20.70;15.68;;;16.60;1.00;;;;;;5084625;28;20059;-59
2023/05/08 11:22:35;;;;;;;17.70;15.55;;;17.00;1.00;;;;;;5073700;28;20486;-68
2023/05/08 11:25:08;;;;;;;18.38;14.90;;;17.60;1.00;;;;;;5073598;28;20544;-54
2023/05/08 11:27:48;;;;;;;19.02;15.48;;;17.70;1.00;;;;;;5073799;28;20035;-57
2023/05/08 11:30:25;;;;;;;18.23;15.65;;;18.10;99.90;;;;;;5073777;28;20407;-56
2023/05/08 11:33:02;;;;;;;17.55;15.10;;;18.30;99.90;;;;;;5073062;28;20033;-56
2023/05/08 11:35:50;;;;;;;19.90;15.38;;;18.60;69.90;;;;;;5073701;28;20394;-57
2023/05/08 11:38:35;;;;;;;16.83;14.80;;;18.80;99.90;;;;;;5073036;28;20024;-57
2023/05/08 11:41:20;;;;;;;20.67;14.48;;;19.00;1.00;;;;;;5071136;28;20483;-57
2023/05/08 11:44:00;;;;;;;24.30;15.32;;;18.80;80.60;;;;;;5072671;28;20025;-57
2023/05/08 11:46:39;;;;;;;17.08;14.88;;;18.50;1.00;;;;;;5072936;28;20471;-58
2023/05/08 11:49:09;;;;;;;13.85;12.27;;;18.80;67.70;;;;;;5073200;28;20036;-57
2023/05/08 11:51:37;;;;;;;19.98;14.50;;;19.50;1.00;;;;;;5073004;28;20115;-56
2023/05/08 11:54:03;;;;;;;15.15;13.65;;;19.80;1.00;;;;;;5071592;28;20013;-57
2023/05/08 11:56:30;;;;;;;17.02;15.00;;;20.00;99.90;;;;;;5073140;28;20115;-56
2023/05/08 11:59:07;;;;;;;17.55;15.48;;;20.10;99.90;;;;;;5072779;28;20793;-58
2023/05/08 12:01:33;;;;;;;16.35;14.60;;;20.00;99.90;;;;;;5072894;28;20020;-56
2023/05/08 12:04:09;;;;;;;15.52;13.93;;;21.00;99.90;;;;;;5070849;28;20043;-57
2023/05/08 12:06:37;;;;;;;14.98;13.45;;;20.70;99.90;;;;;;5072643;28;20027;-58
2023/05/08 12:09:09;;;;;;;16.30;14.55;;;20.50;99.90;;;;;;5072531;28;20036;-58
2023/05/08 12:11:35;;;;;;;16.67;12.65;;;21.50;99.90;;;;;;5081803;28;20023;-58
2023/05/08 12:14:00;;;;;;;16.08;13.20;;;22.30;57.70;;;;;;5092984;28;20030;-58
2023/05/08 12:16:26;;;;;;;15.52;13.18;;;22.10;1.00;;;;;;5092900;28;20059;-57
2023/05/08 12:18:55;;;;;;;13.95;12.35;;;21.90;1.00;;;;;;5092748;28;20035;-58
2023/05/08 12:21:20;;;;;;;17.83;12.98;;;22.00;1.00;;;;;;5092936;28;20043;-58
2023/05/08 12:23:46;;;;;;;15.68;12.55;;;22.70;1.00;;;;;;5092407;28;20785;-58
2023/05/08 12:26:12;;;;;;;13.93;11.52;;;22.50;1.00;;;;;;5092725;28;20060;-58
2023/05/08 12:28:39;;;;;;;13.57;11.68;;;22.40;1.00;;;;;;5081033;28;20043;-58
2023/05/08 12:31:05;;;;;;;11.70;10.57;;;22.60;1.00;;;;;;5072468;28;20036;-58
2023/05/08 12:33:32;;;;;;;13.07;11.65;;;22.50;1.00;;;;;;5072507;28;20379;-58
2023/05/08 12:35:59;;;;;;;14.18;12.73;;;22.40;1.00;;;;;;5071812;28;20103;-58
2023/05/08 12:38:26;;;;;;;27.40;11.73;;;21.80;1.00;;;;;;5072256;28;20043;-58
2023/05/08 12:40:54;;;;;;;19.63;13.43;;;21.90;1.00;;;;;;5072371;28;20047;-56
2023/05/08 12:43:20;;;;;;;18.02;13.77;;;22.10;1.00;;;;;;5072195;28;20403;-58
2023/05/08 12:45:46;;;;;;;19.92;12.88;;;22.00;1.00;;;;;;5071507;28;20103;-57
2023/05/08 12:48:14;;;;;;;13.88;12.35;;;21.80;1.00;;;;;;5072124;28;20028;-58
2023/05/08 12:50:45;;;;;;;16.08;12.20;;;21.90;1.00;;;;;;5070571;28;20048;-56